Aeroporto :
LOGIN :

Iscrizione | Disclaimer

   EN    FR    IT 

 










Sommario :    VFR   VFR Marginale   IFR   IFR Intensivo   IFR Molto Intensivo
Visibilità : 
Base nubi : 
>= 8 km
>= 3000ft
5 / 8 km
1000 / 3000 ft
1500m / 5 km
500 / 1000 ft
800 / 1500m
200 / 500 ft
< 800m
< 200 ft
Simboli :   Temporali  Nebbia  Neve Forte  Precipitazioni Forti  Vento > 20 kt
SIGMETs :   Varie  Temporali  Ghiacco  Turbolenza  Onda orograficha  Ceneri Vulcaniche






- Altitudine del aeroporto : 463 ft
- Codice IATA : HME


DAUH - Oued Irara-Krim Belkacem

ULTIMO METAR :
  • 050330Z 32026KT 1500 BLSA NSC 29/05 Q1006

METARs OBSOLETI :
  • 050300Z 32025KT 1500 BLSA NSC 30/05 Q1006
  • 050230Z 32023KT 2000 BLSA NSC 30/08 Q1005
  • 050200Z 32025KT 2000 BLSA NSC 30/08 Q1004
  • 050130Z 31023KT 3000 DRSA NSC 30/09 Q1004

TAF TAF DAUH
Valido dal 05 a 00 ore il 06 a 00 ore UTC


042300Z 0500/0524 34012KT CAVOK
BECMG 0500/0503 04022KT 3000 DRSA
TEMPO 0503/0507 04022G32KT 1500 BLSA
BECMG 0512/0515 34010KT



MetMap, La meteo Aeronautica in un colpo d'occhio ! - Copyright ORBIFLY Dicembre 2007 - Disclaimer

ORBIFLY MET'MAP TEAM :

Programmazione e sviluppo : Alexandra Zaïnal
Concezione : Baudouin d'Aumeries
Aiuto per la programmazione : Marc-Olivier Méhu
Supporto tecnico e logistico : Manuel Goepfert
Aiuto per la traduzione : Arnaldo La Scala

Contatto : metmap@orbifly.com




FONTI E CREDITI :

   NOAA